sensor_id;sensor_type;location;lat;lon;timestamp;P1;durP1;ratioP1;P2;durP2;ratioP2
29938;SDS011;16799;50.844;5.304;2023-02-01T00:02:21;50.00;;;21.67;;
29938;SDS011;16799;50.844;5.304;2023-02-01T00:04:47;60.70;;;22.80;;
29938;SDS011;16799;50.844;5.304;2023-02-01T00:07:13;38.20;;;19.47;;
29938;SDS011;16799;50.844;5.304;2023-02-01T00:09:41;37.53;;;20.47;;
29938;SDS011;16799;50.844;5.304;2023-02-01T00:12:07;42.13;;;23.43;;
29938;SDS011;16799;50.844;5.304;2023-02-01T00:14:32;38.03;;;19.17;;
29938;SDS011;16799;50.844;5.304;2023-02-01T00:17:03;43.30;;;21.97;;
29938;SDS011;16799;50.844;5.304;2023-02-01T00:19:31;47.23;;;21.63;;
29938;SDS011;16799;50.844;5.304;2023-02-01T00:21:57;51.77;;;23.53;;
29938;SDS011;16799;50.844;5.304;2023-02-01T00:24:22;51.23;;;21.03;;
29938;SDS011;16799;50.844;5.304;2023-02-01T00:26:48;43.90;;;20.13;;
29938;SDS011;16799;50.844;5.304;2023-02-01T00:29:15;44.63;;;21.83;;
29938;SDS011;16799;50.844;5.304;2023-02-01T00:31:43;47.17;;;22.20;;
29938;SDS011;16799;50.844;5.304;2023-02-01T00:34:12;48.57;;;22.70;;
29938;SDS011;16799;50.844;5.304;2023-02-01T00:36:40;38.97;;;19.67;;
29938;SDS011;16799;50.844;5.304;2023-02-01T00:39:06;48.40;;;20.97;;
29938;SDS011;16799;50.844;5.304;2023-02-01T00:41:32;64.10;;;22.87;;
29938;SDS011;16799;50.844;5.304;2023-02-01T00:43:58;46.43;;;19.80;;
29938;SDS011;16799;50.844;5.304;2023-02-01T00:46:24;54.00;;;21.97;;
29938;SDS011;16799;50.844;5.304;2023-02-01T00:48:50;43.00;;;22.03;;
29938;SDS011;16799;50.844;5.304;2023-02-01T00:51:17;48.03;;;21.77;;
29938;SDS011;16799;50.844;5.304;2023-02-01T00:53:47;61.40;;;19.47;;
29938;SDS011;16799;50.844;5.304;2023-02-01T00:56:13;41.10;;;18.60;;
29938;SDS011;16799;50.844;5.304;2023-02-01T00:58:39;52.83;;;19.40;;
29938;SDS011;16799;50.844;5.304;2023-02-01T01:03:47;46.10;;;19.60;;
29938;SDS011;16799;50.844;5.304;2023-02-01T01:06:24;48.53;;;20.70;;
29938;SDS011;16799;50.844;5.304;2023-02-01T01:08:52;43.60;;;19.30;;
29938;SDS011;16799;50.844;5.304;2023-02-01T01:11:20;40.37;;;20.07;;
29938;SDS011;16799;50.844;5.304;2023-02-01T01:13:51;44.07;;;18.53;;
29938;SDS011;16799;50.844;5.304;2023-02-01T01:16:18;36.93;;;18.80;;
29938;SDS011;16799;50.844;5.304;2023-02-01T01:18:45;42.10;;;20.53;;
29938;SDS011;16799;50.844;5.304;2023-02-01T01:21:11;37.63;;;20.80;;
29938;SDS011;16799;50.844;5.304;2023-02-01T01:23:39;46.43;;;18.67;;
29938;SDS011;16799;50.844;5.304;2023-02-01T01:26:08;33.13;;;17.50;;
29938;SDS011;16799;50.844;5.304;2023-02-01T01:28:36;41.13;;;18.57;;
29938;SDS011;16799;50.844;5.304;2023-02-01T01:31:01;44.20;;;16.20;;
29938;SDS011;16799;50.844;5.304;2023-02-01T01:33:28;47.40;;;18.40;;
29938;SDS011;16799;50.844;5.304;2023-02-01T01:35:53;55.87;;;18.73;;
29938;SDS011;16799;50.844;5.304;2023-02-01T01:38:19;29.87;;;19.40;;
29938;SDS011;16799;50.844;5.304;2023-02-01T01:40:45;54.37;;;20.90;;
29938;SDS011;16799;50.844;5.304;2023-02-01T01:43:15;42.57;;;18.17;;
29938;SDS011;16799;50.844;5.304;2023-02-01T01:45:43;27.03;;;16.97;;
29938;SDS011;16799;50.844;5.304;2023-02-01T01:48:12;48.40;;;18.50;;
29938;SDS011;16799;50.844;5.304;2023-02-01T01:50:43;53.37;;;18.97;;
29938;SDS011;16799;50.844;5.304;2023-02-01T01:53:14;30.50;;;16.27;;
29938;SDS011;16799;50.844;5.304;2023-02-01T01:55:44;29.40;;;14.20;;
29938;SDS011;16799;50.844;5.304;2023-02-01T01:58:14;55.70;;;17.67;;
29938;SDS011;16799;50.844;5.304;2023-02-01T02:00:42;34.67;;;16.43;;
29938;SDS011;16799;50.844;5.304;2023-02-01T02:03:19;31.10;;;14.07;;
29938;SDS011;16799;50.844;5.304;2023-02-01T02:05:50;38.50;;;14.30;;
29938;SDS011;16799;50.844;5.304;2023-02-01T02:08:19;33.37;;;16.30;;
29938;SDS011;16799;50.844;5.304;2023-02-01T02:10:48;41.57;;;16.33;;
29938;SDS011;16799;50.844;5.304;2023-02-01T02:13:26;41.20;;;14.60;;
29938;SDS011;16799;50.844;5.304;2023-02-01T02:16:05;25.80;;;16.03;;
29938;SDS011;16799;50.844;5.304;2023-02-01T02:19:10;35.37;;;14.40;;
29938;SDS011;16799;50.844;5.304;2023-02-01T02:27:15;36.90;;;12.50;;
29938;SDS011;16799;50.844;5.304;2023-02-01T02:38:33;35.33;;;11.53;;
29938;SDS011;16799;50.844;5.304;2023-02-01T02:43:59;21.90;;;8.77;;
29938;SDS011;16799;50.844;5.304;2023-02-01T02:46:52;19.40;;;8.90;;
29938;SDS011;16799;50.844;5.304;2023-02-01T02:52:41;40.67;;;7.73;;
29938;SDS011;16799;50.844;5.304;2023-02-01T02:55:30;17.43;;;7.67;;
29938;SDS011;16799;50.844;5.304;2023-02-01T02:58:00;21.93;;;8.77;;
29938;SDS011;16799;50.844;5.304;2023-02-01T03:00:48;28.07;;;6.10;;
29938;SDS011;16799;50.844;5.304;2023-02-01T03:03:36;22.77;;;7.90;;
29938;SDS011;16799;50.844;5.304;2023-02-01T03:06:22;23.40;;;6.60;;
29938;SDS011;16799;50.844;5.304;2023-02-01T03:08:48;19.43;;;5.67;;
29938;SDS011;16799;50.844;5.304;2023-02-01T03:11:19;28.40;;;7.17;;
29938;SDS011;16799;50.844;5.304;2023-02-01T03:13:49;10.03;;;4.57;;
29938;SDS011;16799;50.844;5.304;2023-02-01T03:16:35;17.43;;;5.13;;
29938;SDS011;16799;50.844;5.304;2023-02-01T03:19:16;37.50;;;5.50;;
29938;SDS011;16799;50.844;5.304;2023-02-01T03:24:34;23.37;;;5.77;;
29938;SDS011;16799;50.844;5.304;2023-02-01T03:32:43;23.33;;;4.47;;
29938;SDS011;16799;50.844;5.304;2023-02-01T03:36:24;11.33;;;4.60;;
29938;SDS011;16799;50.844;5.304;2023-02-01T03:41:34;20.90;;;3.73;;
29938;SDS011;16799;50.844;5.304;2023-02-01T03:44:12;12.93;;;3.63;;
29938;SDS011;16799;50.844;5.304;2023-02-01T03:47:08;15.47;;;5.87;;
29938;SDS011;16799;50.844;5.304;2023-02-01T03:52:06;17.07;;;3.13;;
29938;SDS011;16799;50.844;5.304;2023-02-01T03:54:37;30.17;;;4.13;;
29938;SDS011;16799;50.844;5.304;2023-02-01T03:57:05;15.87;;;4.10;;
29938;SDS011;16799;50.844;5.304;2023-02-01T03:59:37;26.10;;;5.00;;
29938;SDS011;16799;50.844;5.304;2023-02-01T04:02:06;12.77;;;4.70;;
29938;SDS011;16799;50.844;5.304;2023-02-01T04:04:33;9.33;;;3.80;;
29938;SDS011;16799;50.844;5.304;2023-02-01T04:06:59;12.87;;;3.80;;
29938;SDS011;16799;50.844;5.304;2023-02-01T04:09:25;16.40;;;3.53;;
29938;SDS011;16799;50.844;5.304;2023-02-01T04:11:51;12.30;;;4.30;;
29938;SDS011;16799;50.844;5.304;2023-02-01T04:14:16;17.27;;;3.57;;
29938;SDS011;16799;50.844;5.304;2023-02-01T04:16:42;19.07;;;4.30;;
29938;SDS011;16799;50.844;5.304;2023-02-01T04:19:08;14.57;;;4.53;;
29938;SDS011;16799;50.844;5.304;2023-02-01T04:21:33;14.83;;;4.37;;
29938;SDS011;16799;50.844;5.304;2023-02-01T04:23:59;14.80;;;4.00;;
29938;SDS011;16799;50.844;5.304;2023-02-01T04:26:25;15.83;;;4.70;;
29938;SDS011;16799;50.844;5.304;2023-02-01T04:28:50;13.70;;;4.17;;
29938;SDS011;16799;50.844;5.304;2023-02-01T04:31:17;19.33;;;4.80;;
29938;SDS011;16799;50.844;5.304;2023-02-01T04:33:50;18.20;;;3.93;;
29938;SDS011;16799;50.844;5.304;2023-02-01T04:36:20;16.03;;;4.60;;
29938;SDS011;16799;50.844;5.304;2023-02-01T04:38:47;15.33;;;4.43;;
29938;SDS011;16799;50.844;5.304;2023-02-01T04:41:13;14.03;;;4.57;;
29938;SDS011;16799;50.844;5.304;2023-02-01T04:43:40;10.87;;;3.93;;
29938;SDS011;16799;50.844;5.304;2023-02-01T04:46:06;14.67;;;4.37;;
29938;SDS011;16799;50.844;5.304;2023-02-01T04:48:31;17.27;;;4.50;;
29938;SDS011;16799;50.844;5.304;2023-02-01T04:50:57;28.73;;;6.87;;
29938;SDS011;16799;50.844;5.304;2023-02-01T04:53:23;21.40;;;4.60;;
29938;SDS011;16799;50.844;5.304;2023-02-01T04:55:49;24.30;;;4.07;;
29938;SDS011;16799;50.844;5.304;2023-02-01T04:58:15;15.13;;;3.90;;
29938;SDS011;16799;50.844;5.304;2023-02-01T05:00:41;16.20;;;4.13;;
29938;SDS011;16799;50.844;5.304;2023-02-01T05:03:06;23.13;;;5.27;;
29938;SDS011;16799;50.844;5.304;2023-02-01T05:05:32;19.70;;;5.03;;
29938;SDS011;16799;50.844;5.304;2023-02-01T05:07:58;12.10;;;4.27;;
29938;SDS011;16799;50.844;5.304;2023-02-01T05:10:23;14.93;;;5.90;;
29938;SDS011;16799;50.844;5.304;2023-02-01T05:12:49;19.03;;;4.37;;
29938;SDS011;16799;50.844;5.304;2023-02-01T05:15:34;23.27;;;5.33;;
29938;SDS011;16799;50.844;5.304;2023-02-01T05:17:59;10.60;;;3.20;;
29938;SDS011;16799;50.844;5.304;2023-02-01T05:20:25;25.63;;;4.30;;
29938;SDS011;16799;50.844;5.304;2023-02-01T05:22:51;19.57;;;5.70;;
29938;SDS011;16799;50.844;5.304;2023-02-01T05:25:16;29.17;;;3.67;;
29938;SDS011;16799;50.844;5.304;2023-02-01T05:27:42;28.47;;;4.37;;
29938;SDS011;16799;50.844;5.304;2023-02-01T05:30:08;14.30;;;3.83;;
29938;SDS011;16799;50.844;5.304;2023-02-01T05:32:34;12.20;;;4.17;;
29938;SDS011;16799;50.844;5.304;2023-02-01T05:35:02;16.37;;;5.67;;
29938;SDS011;16799;50.844;5.304;2023-02-01T05:37:28;13.67;;;3.50;;
29938;SDS011;16799;50.844;5.304;2023-02-01T05:39:53;11.37;;;3.57;;
29938;SDS011;16799;50.844;5.304;2023-02-01T05:42:19;19.43;;;4.30;;
29938;SDS011;16799;50.844;5.304;2023-02-01T05:44:45;9.50;;;3.57;;
29938;SDS011;16799;50.844;5.304;2023-02-01T05:47:10;10.37;;;3.53;;
29938;SDS011;16799;50.844;5.304;2023-02-01T05:49:37;12.73;;;3.20;;
29938;SDS011;16799;50.844;5.304;2023-02-01T05:52:03;30.10;;;5.50;;
29938;SDS011;16799;50.844;5.304;2023-02-01T05:54:28;18.03;;;4.50;;
29938;SDS011;16799;50.844;5.304;2023-02-01T05:56:54;14.53;;;4.90;;
29938;SDS011;16799;50.844;5.304;2023-02-01T05:59:20;22.03;;;5.37;;
29938;SDS011;16799;50.844;5.304;2023-02-01T06:01:45;12.67;;;4.50;;
29938;SDS011;16799;50.844;5.304;2023-02-01T06:04:11;11.30;;;5.37;;
29938;SDS011;16799;50.844;5.304;2023-02-01T06:06:37;11.80;;;3.63;;
29938;SDS011;16799;50.844;5.304;2023-02-01T06:09:02;21.97;;;5.03;;
29938;SDS011;16799;50.844;5.304;2023-02-01T06:11:28;18.67;;;3.77;;
29938;SDS011;16799;50.844;5.304;2023-02-01T06:13:54;17.53;;;4.07;;
29938;SDS011;16799;50.844;5.304;2023-02-01T06:16:20;15.53;;;3.53;;
29938;SDS011;16799;50.844;5.304;2023-02-01T06:18:47;23.10;;;3.43;;
29938;SDS011;16799;50.844;5.304;2023-02-01T06:21:13;18.60;;;4.03;;
29938;SDS011;16799;50.844;5.304;2023-02-01T06:23:40;20.73;;;6.93;;
29938;SDS011;16799;50.844;5.304;2023-02-01T06:26:07;12.67;;;4.27;;
29938;SDS011;16799;50.844;5.304;2023-02-01T06:28:33;11.83;;;4.17;;
29938;SDS011;16799;50.844;5.304;2023-02-01T06:31:03;16.67;;;4.30;;
29938;SDS011;16799;50.844;5.304;2023-02-01T06:33:31;15.67;;;4.90;;
29938;SDS011;16799;50.844;5.304;2023-02-01T06:35:58;19.47;;;4.50;;
29938;SDS011;16799;50.844;5.304;2023-02-01T06:38:25;17.30;;;6.13;;
29938;SDS011;16799;50.844;5.304;2023-02-01T06:40:52;21.80;;;3.97;;
29938;SDS011;16799;50.844;5.304;2023-02-01T06:43:22;23.67;;;4.43;;
29938;SDS011;16799;50.844;5.304;2023-02-01T06:45:49;22.57;;;5.53;;
29938;SDS011;16799;50.844;5.304;2023-02-01T06:48:14;23.93;;;4.53;;
29938;SDS011;16799;50.844;5.304;2023-02-01T06:50:40;16.33;;;4.67;;
29938;SDS011;16799;50.844;5.304;2023-02-01T06:53:06;30.00;;;5.33;;
29938;SDS011;16799;50.844;5.304;2023-02-01T06:55:31;25.43;;;4.37;;
29938;SDS011;16799;50.844;5.304;2023-02-01T06:57:57;22.63;;;4.83;;
29938;SDS011;16799;50.844;5.304;2023-02-01T07:00:23;14.40;;;4.17;;
29938;SDS011;16799;50.844;5.304;2023-02-01T07:02:49;21.37;;;4.40;;
29938;SDS011;16799;50.844;5.304;2023-02-01T07:05:18;17.70;;;3.90;;
29938;SDS011;16799;50.844;5.304;2023-02-01T07:07:43;16.57;;;4.03;;
29938;SDS011;16799;50.844;5.304;2023-02-01T07:10:09;17.67;;;5.60;;
29938;SDS011;16799;50.844;5.304;2023-02-01T07:12:35;22.93;;;4.40;;
29938;SDS011;16799;50.844;5.304;2023-02-01T07:15:01;21.53;;;5.20;;
29938;SDS011;16799;50.844;5.304;2023-02-01T07:17:27;13.07;;;4.40;;
29938;SDS011;16799;50.844;5.304;2023-02-01T07:19:54;19.23;;;4.27;;
29938;SDS011;16799;50.844;5.304;2023-02-01T07:22:21;18.67;;;5.00;;
29938;SDS011;16799;50.844;5.304;2023-02-01T07:24:46;26.67;;;5.33;;
29938;SDS011;16799;50.844;5.304;2023-02-01T07:27:12;15.03;;;4.23;;
29938;SDS011;16799;50.844;5.304;2023-02-01T07:29:38;19.00;;;3.50;;
29938;SDS011;16799;50.844;5.304;2023-02-01T07:32:04;23.97;;;5.87;;
29938;SDS011;16799;50.844;5.304;2023-02-01T07:34:30;13.77;;;4.40;;
29938;SDS011;16799;50.844;5.304;2023-02-01T07:36:56;14.00;;;5.60;;
29938;SDS011;16799;50.844;5.304;2023-02-01T07:39:21;17.10;;;4.20;;
29938;SDS011;16799;50.844;5.304;2023-02-01T07:41:47;25.37;;;5.17;;
29938;SDS011;16799;50.844;5.304;2023-02-01T07:44:13;23.00;;;4.80;;
29938;SDS011;16799;50.844;5.304;2023-02-01T07:46:39;22.93;;;4.73;;
29938;SDS011;16799;50.844;5.304;2023-02-01T07:49:04;22.23;;;5.23;;
29938;SDS011;16799;50.844;5.304;2023-02-01T07:51:30;21.27;;;6.20;;
29938;SDS011;16799;50.844;5.304;2023-02-01T07:53:56;18.03;;;4.10;;
29938;SDS011;16799;50.844;5.304;2023-02-01T07:56:22;14.93;;;4.83;;
29938;SDS011;16799;50.844;5.304;2023-02-01T07:58:48;19.13;;;3.73;;
29938;SDS011;16799;50.844;5.304;2023-02-01T08:01:16;23.33;;;3.40;;
29938;SDS011;16799;50.844;5.304;2023-02-01T08:03:49;14.80;;;3.80;;
29938;SDS011;16799;50.844;5.304;2023-02-01T08:06:25;24.47;;;5.93;;
29938;SDS011;16799;50.844;5.304;2023-02-01T08:08:52;18.77;;;4.63;;
29938;SDS011;16799;50.844;5.304;2023-02-01T08:11:19;12.03;;;4.77;;
29938;SDS011;16799;50.844;5.304;2023-02-01T08:13:45;11.60;;;4.27;;
29938;SDS011;16799;50.844;5.304;2023-02-01T08:16:12;14.00;;;4.40;;
29938;SDS011;16799;50.844;5.304;2023-02-01T08:18:39;18.73;;;5.10;;
29938;SDS011;16799;50.844;5.304;2023-02-01T08:21:05;16.57;;;5.23;;
29938;SDS011;16799;50.844;5.304;2023-02-01T08:23:33;24.30;;;4.67;;
29938;SDS011;16799;50.844;5.304;2023-02-01T08:28:44;22.17;;;3.83;;
29938;SDS011;16799;50.844;5.304;2023-02-01T08:31:13;29.67;;;5.03;;
29938;SDS011;16799;50.844;5.304;2023-02-01T08:33:41;11.90;;;4.57;;
29938;SDS011;16799;50.844;5.304;2023-02-01T08:36:08;17.90;;;4.73;;
29938;SDS011;16799;50.844;5.304;2023-02-01T08:38:36;20.47;;;4.67;;
29938;SDS011;16799;50.844;5.304;2023-02-01T08:41:07;20.00;;;4.50;;
29938;SDS011;16799;50.844;5.304;2023-02-01T08:43:34;31.50;;;5.90;;
29938;SDS011;16799;50.844;5.304;2023-02-01T08:46:01;17.10;;;5.30;;
29938;SDS011;16799;50.844;5.304;2023-02-01T08:48:27;12.40;;;4.00;;
29938;SDS011;16799;50.844;5.304;2023-02-01T08:50:53;24.13;;;3.93;;
29938;SDS011;16799;50.844;5.304;2023-02-01T08:53:18;20.83;;;5.07;;
29938;SDS011;16799;50.844;5.304;2023-02-01T08:55:45;15.40;;;4.40;;
29938;SDS011;16799;50.844;5.304;2023-02-01T08:58:12;24.10;;;6.13;;
29938;SDS011;16799;50.844;5.304;2023-02-01T09:00:39;20.67;;;4.13;;
29938;SDS011;16799;50.844;5.304;2023-02-01T09:03:05;18.73;;;6.63;;
29938;SDS011;16799;50.844;5.304;2023-02-01T09:05:34;18.33;;;4.27;;
29938;SDS011;16799;50.844;5.304;2023-02-01T09:08:00;26.23;;;4.47;;
29938;SDS011;16799;50.844;5.304;2023-02-01T09:10:25;11.60;;;4.70;;
29938;SDS011;16799;50.844;5.304;2023-02-01T09:12:51;14.23;;;4.03;;
29938;SDS011;16799;50.844;5.304;2023-02-01T09:15:17;31.77;;;5.23;;
29938;SDS011;16799;50.844;5.304;2023-02-01T09:17:42;10.33;;;4.47;;
29938;SDS011;16799;50.844;5.304;2023-02-01T09:20:09;24.97;;;5.23;;
29938;SDS011;16799;50.844;5.304;2023-02-01T09:22:35;12.23;;;3.50;;
29938;SDS011;16799;50.844;5.304;2023-02-01T09:25:00;11.40;;;3.87;;
29938;SDS011;16799;50.844;5.304;2023-02-01T09:27:26;5.90;;;3.63;;
29938;SDS011;16799;50.844;5.304;2023-02-01T09:29:52;13.60;;;3.70;;
29938;SDS011;16799;50.844;5.304;2023-02-01T09:32:21;21.00;;;4.80;;
29938;SDS011;16799;50.844;5.304;2023-02-01T09:34:48;12.10;;;4.03;;
29938;SDS011;16799;50.844;5.304;2023-02-01T09:37:15;15.80;;;4.77;;
29938;SDS011;16799;50.844;5.304;2023-02-01T09:39:41;13.03;;;4.47;;
29938;SDS011;16799;50.844;5.304;2023-02-01T09:45:10;8.77;;;4.40;;
29938;SDS011;16799;50.844;5.304;2023-02-01T09:47:40;17.43;;;4.10;;
29938;SDS011;16799;50.844;5.304;2023-02-01T09:50:17;12.20;;;4.73;;
29938;SDS011;16799;50.844;5.304;2023-02-01T09:52:54;20.73;;;4.57;;
29938;SDS011;16799;50.844;5.304;2023-02-01T09:55:39;17.87;;;3.90;;
29938;SDS011;16799;50.844;5.304;2023-02-01T09:58:16;16.00;;;5.53;;
29938;SDS011;16799;50.844;5.304;2023-02-01T10:00:51;11.03;;;4.40;;
29938;SDS011;16799;50.844;5.304;2023-02-01T10:03:18;28.87;;;5.47;;
29938;SDS011;16799;50.844;5.304;2023-02-01T10:05:58;12.90;;;4.20;;
29938;SDS011;16799;50.844;5.304;2023-02-01T10:11:50;16.70;;;5.87;;
29938;SDS011;16799;50.844;5.304;2023-02-01T10:14:46;13.30;;;4.20;;
29938;SDS011;16799;50.844;5.304;2023-02-01T10:25:56;20.80;;;3.63;;
29938;SDS011;16799;50.844;5.304;2023-02-01T10:28:48;21.73;;;5.60;;
29938;SDS011;16799;50.844;5.304;2023-02-01T10:31:24;9.60;;;4.00;;
29938;SDS011;16799;50.844;5.304;2023-02-01T10:33:56;21.30;;;4.37;;
29938;SDS011;16799;50.844;5.304;2023-02-01T10:36:35;26.53;;;4.43;;
29938;SDS011;16799;50.844;5.304;2023-02-01T10:39:04;17.13;;;4.17;;
29938;SDS011;16799;50.844;5.304;2023-02-01T10:41:33;15.73;;;5.23;;
29938;SDS011;16799;50.844;5.304;2023-02-01T10:44:02;21.17;;;4.47;;
29938;SDS011;16799;50.844;5.304;2023-02-01T10:46:30;14.20;;;4.20;;
29938;SDS011;16799;50.844;5.304;2023-02-01T10:48:56;17.50;;;4.17;;
29938;SDS011;16799;50.844;5.304;2023-02-01T10:51:30;11.27;;;4.07;;
29938;SDS011;16799;50.844;5.304;2023-02-01T10:54:33;20.97;;;3.10;;
29938;SDS011;16799;50.844;5.304;2023-02-01T10:57:00;16.80;;;3.80;;
29938;SDS011;16799;50.844;5.304;2023-02-01T10:59:27;14.37;;;4.17;;
29938;SDS011;16799;50.844;5.304;2023-02-01T11:02:01;10.43;;;4.27;;
29938;SDS011;16799;50.844;5.304;2023-02-01T11:04:38;14.30;;;3.17;;
29938;SDS011;16799;50.844;5.304;2023-02-01T11:07:12;8.53;;;3.37;;
29938;SDS011;16799;50.844;5.304;2023-02-01T11:09:49;22.67;;;5.07;;
29938;SDS011;16799;50.844;5.304;2023-02-01T11:14:55;13.73;;;4.10;;
29938;SDS011;16799;50.844;5.304;2023-02-01T11:17:25;16.80;;;3.33;;
29938;SDS011;16799;50.844;5.304;2023-02-01T11:19:57;19.20;;;3.83;;
29938;SDS011;16799;50.844;5.304;2023-02-01T11:22:25;9.70;;;2.67;;
29938;SDS011;16799;50.844;5.304;2023-02-01T11:24:52;11.57;;;5.40;;
29938;SDS011;16799;50.844;5.304;2023-02-01T11:27:20;8.70;;;3.57;;
29938;SDS011;16799;50.844;5.304;2023-02-01T11:29:48;13.70;;;4.40;;
29938;SDS011;16799;50.844;5.304;2023-02-01T11:32:17;11.13;;;3.30;;
29938;SDS011;16799;50.844;5.304;2023-02-01T11:34:46;15.60;;;3.10;;
29938;SDS011;16799;50.844;5.304;2023-02-01T11:37:20;24.13;;;3.73;;
29938;SDS011;16799;50.844;5.304;2023-02-01T11:40:02;19.80;;;3.20;;
29938;SDS011;16799;50.844;5.304;2023-02-01T11:42:57;18.63;;;3.90;;
29938;SDS011;16799;50.844;5.304;2023-02-01T11:45:29;12.97;;;3.50;;
29938;SDS011;16799;50.844;5.304;2023-02-01T11:47:57;14.77;;;3.40;;
29938;SDS011;16799;50.844;5.304;2023-02-01T11:56:15;6.70;;;2.87;;
29938;SDS011;16799;50.844;5.304;2023-02-01T12:09:31;13.80;;;4.30;;
29938;SDS011;16799;50.844;5.304;2023-02-01T12:18:00;9.67;;;5.00;;
29938;SDS011;16799;50.844;5.304;2023-02-01T12:24:06;18.73;;;3.53;;
29938;SDS011;16799;50.844;5.304;2023-02-01T12:26:58;20.73;;;3.60;;
29938;SDS011;16799;50.844;5.304;2023-02-01T12:30:07;8.60;;;3.57;;
29938;SDS011;16799;50.844;5.304;2023-02-01T12:38:04;11.60;;;2.37;;
29938;SDS011;16799;50.844;5.304;2023-02-01T12:43:45;9.40;;;3.90;;
29938;SDS011;16799;50.844;5.304;2023-02-01T12:46:21;13.03;;;2.37;;
29938;SDS011;16799;50.844;5.304;2023-02-01T12:49:22;17.93;;;2.77;;
29938;SDS011;16799;50.844;5.304;2023-02-01T12:51:58;5.03;;;2.60;;
29938;SDS011;16799;50.844;5.304;2023-02-01T12:54:41;6.67;;;2.80;;
29938;SDS011;16799;50.844;5.304;2023-02-01T12:57:25;10.77;;;3.07;;
29938;SDS011;16799;50.844;5.304;2023-02-01T13:02:47;12.63;;;3.07;;
29938;SDS011;16799;50.844;5.304;2023-02-01T13:06:02;11.03;;;2.73;;
29938;SDS011;16799;50.844;5.304;2023-02-01T13:08:17;5.43;;;2.50;;
29938;SDS011;16799;50.844;5.304;2023-02-01T13:10:59;21.70;;;3.77;;
29938;SDS011;16799;50.844;5.304;2023-02-01T13:13:35;7.70;;;3.10;;
29938;SDS011;16799;50.844;5.304;2023-02-01T13:16:26;8.37;;;3.00;;
29938;SDS011;16799;50.844;5.304;2023-02-01T13:19:00;6.93;;;1.90;;
29938;SDS011;16799;50.844;5.304;2023-02-01T13:21:38;7.00;;;2.07;;
29938;SDS011;16799;50.844;5.304;2023-02-01T13:24:17;29.53;;;3.20;;
29938;SDS011;16799;50.844;5.304;2023-02-01T13:26:46;4.90;;;2.60;;
29938;SDS011;16799;50.844;5.304;2023-02-01T13:29:11;7.70;;;3.30;;
29938;SDS011;16799;50.844;5.304;2023-02-01T13:32:43;13.40;;;2.63;;
29938;SDS011;16799;50.844;5.304;2023-02-01T13:34:53;15.63;;;2.70;;
29938;SDS011;16799;50.844;5.304;2023-02-01T13:42:51;4.13;;;1.97;;
29938;SDS011;16799;50.844;5.304;2023-02-01T13:45:27;7.63;;;2.70;;
29938;SDS011;16799;50.844;5.304;2023-02-01T13:47:58;10.67;;;2.80;;
29938;SDS011;16799;50.844;5.304;2023-02-01T13:55:59;7.67;;;2.20;;
29938;SDS011;16799;50.844;5.304;2023-02-01T13:58:33;11.77;;;1.83;;
29938;SDS011;16799;50.844;5.304;2023-02-01T14:03:46;4.60;;;2.47;;
29938;SDS011;16799;50.844;5.304;2023-02-01T14:11:43;9.07;;;3.03;;
29938;SDS011;16799;50.844;5.304;2023-02-01T14:24:16;13.63;;;1.83;;
29938;SDS011;16799;50.844;5.304;2023-02-01T14:26:49;5.10;;;1.73;;
29938;SDS011;16799;50.844;5.304;2023-02-01T14:32:06;9.00;;;2.23;;
29938;SDS011;16799;50.844;5.304;2023-02-01T14:47:50;11.43;;;3.00;;
29938;SDS011;16799;50.844;5.304;2023-02-01T14:55:30;18.83;;;2.77;;
29938;SDS011;16799;50.844;5.304;2023-02-01T14:57:57;8.00;;;3.63;;
29938;SDS011;16799;50.844;5.304;2023-02-01T15:00:27;11.23;;;2.50;;
29938;SDS011;16799;50.844;5.304;2023-02-01T15:03:00;15.63;;;2.50;;
29938;SDS011;16799;50.844;5.304;2023-02-01T15:05:50;18.53;;;3.27;;
29938;SDS011;16799;50.844;5.304;2023-02-01T15:08:24;12.70;;;2.30;;
29938;SDS011;16799;50.844;5.304;2023-02-01T15:10:53;8.10;;;2.70;;
29938;SDS011;16799;50.844;5.304;2023-02-01T15:18:42;7.67;;;2.77;;
29938;SDS011;16799;50.844;5.304;2023-02-01T15:21:16;18.27;;;4.60;;
29938;SDS011;16799;50.844;5.304;2023-02-01T15:23:46;10.93;;;2.97;;
29938;SDS011;16799;50.844;5.304;2023-02-01T15:26:30;14.63;;;7.00;;
29938;SDS011;16799;50.844;5.304;2023-02-01T15:28:59;8.80;;;2.00;;
29938;SDS011;16799;50.844;5.304;2023-02-01T15:31:36;15.07;;;2.80;;
29938;SDS011;16799;50.844;5.304;2023-02-01T15:34:03;5.80;;;2.53;;
29938;SDS011;16799;50.844;5.304;2023-02-01T15:36:29;9.33;;;2.70;;
29938;SDS011;16799;50.844;5.304;2023-02-01T15:41:56;8.60;;;2.30;;
29938;SDS011;16799;50.844;5.304;2023-02-01T15:44:34;10.63;;;4.43;;
29938;SDS011;16799;50.844;5.304;2023-02-01T15:47:23;17.50;;;3.20;;
29938;SDS011;16799;50.844;5.304;2023-02-01T15:49:52;15.40;;;3.93;;
29938;SDS011;16799;50.844;5.304;2023-02-01T15:52:24;13.53;;;2.47;;
29938;SDS011;16799;50.844;5.304;2023-02-01T15:54:56;9.23;;;3.07;;
29938;SDS011;16799;50.844;5.304;2023-02-01T15:57:28;16.27;;;3.40;;
29938;SDS011;16799;50.844;5.304;2023-02-01T16:00:01;16.13;;;3.23;;
29938;SDS011;16799;50.844;5.304;2023-02-01T16:02:43;16.77;;;3.67;;
29938;SDS011;16799;50.844;5.304;2023-02-01T16:05:33;21.33;;;3.47;;
29938;SDS011;16799;50.844;5.304;2023-02-01T16:08:10;10.57;;;3.10;;
29938;SDS011;16799;50.844;5.304;2023-02-01T16:10:41;20.07;;;4.13;;
29938;SDS011;16799;50.844;5.304;2023-02-01T16:13:08;10.20;;;4.10;;
29938;SDS011;16799;50.844;5.304;2023-02-01T16:15:34;12.50;;;3.30;;
29938;SDS011;16799;50.844;5.304;2023-02-01T16:18:00;7.93;;;2.80;;
29938;SDS011;16799;50.844;5.304;2023-02-01T16:20:26;16.00;;;3.53;;
29938;SDS011;16799;50.844;5.304;2023-02-01T16:22:52;8.47;;;3.77;;
29938;SDS011;16799;50.844;5.304;2023-02-01T16:25:17;10.73;;;3.00;;
29938;SDS011;16799;50.844;5.304;2023-02-01T16:27:43;9.40;;;3.20;;
29938;SDS011;16799;50.844;5.304;2023-02-01T16:30:09;23.83;;;4.83;;
29938;SDS011;16799;50.844;5.304;2023-02-01T16:32:35;11.10;;;3.57;;
29938;SDS011;16799;50.844;5.304;2023-02-01T16:35:05;15.77;;;3.10;;
29938;SDS011;16799;50.844;5.304;2023-02-01T16:37:48;15.87;;;3.50;;
29938;SDS011;16799;50.844;5.304;2023-02-01T16:40:14;16.33;;;4.43;;
29938;SDS011;16799;50.844;5.304;2023-02-01T16:42:41;15.77;;;3.50;;
29938;SDS011;16799;50.844;5.304;2023-02-01T16:45:07;15.63;;;4.07;;
29938;SDS011;16799;50.844;5.304;2023-02-01T16:47:33;17.10;;;3.07;;
29938;SDS011;16799;50.844;5.304;2023-02-01T16:50:02;12.00;;;3.27;;
29938;SDS011;16799;50.844;5.304;2023-02-01T16:52:29;18.97;;;4.03;;
29938;SDS011;16799;50.844;5.304;2023-02-01T16:54:55;11.97;;;4.13;;
29938;SDS011;16799;50.844;5.304;2023-02-01T16:57:20;10.20;;;3.30;;
29938;SDS011;16799;50.844;5.304;2023-02-01T16:59:48;8.87;;;3.20;;
29938;SDS011;16799;50.844;5.304;2023-02-01T17:02:18;10.93;;;3.40;;
29938;SDS011;16799;50.844;5.304;2023-02-01T17:04:48;18.97;;;4.63;;
29938;SDS011;16799;50.844;5.304;2023-02-01T17:07:15;10.77;;;3.63;;
29938;SDS011;16799;50.844;5.304;2023-02-01T17:09:43;13.13;;;3.20;;
29938;SDS011;16799;50.844;5.304;2023-02-01T17:12:26;12.60;;;3.47;;
29938;SDS011;16799;50.844;5.304;2023-02-01T17:14:56;3.60;;;3.03;;
29938;SDS011;16799;50.844;5.304;2023-02-01T17:17:23;13.73;;;3.17;;
29938;SDS011;16799;50.844;5.304;2023-02-01T17:19:53;24.80;;;4.37;;
29938;SDS011;16799;50.844;5.304;2023-02-01T17:22:19;16.20;;;3.93;;
29938;SDS011;16799;50.844;5.304;2023-02-01T17:24:45;8.50;;;2.80;;
29938;SDS011;16799;50.844;5.304;2023-02-01T17:27:11;21.03;;;5.30;;